Terminal Aerodrome Forecast
Issued by NWS

Current Version | Previous Version | Text Only | Print | Product List | Glossary On
Versions: 1 2 3 4 5 6 7 8 9 10 11 12 13 14 15 16 17 18 19 20 21 22 23 24 25 26 27 28 29 30 31
000
FTUS44 KMAF 311300 AAA
TAFCNM
TAF AMD
KCNM 311333Z 3114/0112 35010KT P6SM SCT025 OVC060
      TEMPO 3114/3117 VRB15G25KT 3SM TSRA FEW008 BKN020 BKN040CB
     FM311800 02008KT P6SM SCT050 BKN130=

USA.gov is the U.S. government's official web portal to all federal, state and local government web resources and services.